En poursuivant votre navigation sur ce site, vous acceptez l'utilisation de cookies pour vous proposer des contenus et services adaptés. Mentions légales.
  

21/06/2019  Mise à jour des tableaux d'analyses décadaires : rubrique climatologie
14/06/2019 Changement d'adresse des 3 stations alentours : 
CLIQUEZ ICI
04/06/2019 Mise en ligne de la synthèse climatologique de MAI : CLIQUEZ ICI
02/06/2019  Mise à jour des tableaux d'analyses décadaires, mensuelles et annuelles : rubrique climatologie   

NOAA COMPLET DU MOIS

Si l'entête du tableau ne s'affiche pas correctement, => actualisez la page (F5 avec Internet Explorer, Chrome...).
Utilisez l'ascenseur sur la droite des lignes du tableau pour faire défiler verticalement les jours du mois.

TABLEAU DES DONNEES COMPLETES NOAA de FEVRIER 2019

DATE TEMPERATURE
sous abri
TEMPARATURE 
au sol
VENT  et  Indice de Refroidissement Eolien  PRECIPITATIONS (en mm/m2)
et Intensité
PRESSION ATMOSPHERIQUE (en hPa) HUMIDITE de l'AIR RADIATIONS SOLAIRES (en W/m2)
Mini Moy. Maxi Mini Moy. Maxi Moyen Rafale I.R.E.
Minii
Précip. jour Cumul mois Intensité Maxi Mini Moy. Maxi Mini Moy. Maxi Pic maxi du jour Total jour
01/02/19 4.3° 6.5° 8.2° 2.8° 7.8° 7.1km/h dir SSE 46.7km/h dir SE 3.5° 7.6 7.6 7.6mm/h 986.2 989.1 992 87% 92.7% 96% 111 4 353
02/02/19 0.4° 3.1° 5.9° -1.1° 2.8° 6.1° 7.4km/h dir ONO 33.8km/h dir ONO -1.4° 8.8 16.4 2.8mm/h 989.3 997 1006.9 89% 94.5% 97% 318 9 922
03/02/19 1.3° 2.7° 3.8° 2.2° 3.3° 13.5km/h dir ONO 38.6km/h dir NNE -2.6° 7 23.4 1.8mm/h 1007 1017.3 1027.3 78% 89.1% 96% 111 5 180
04/02/19 -2.1° 0.6° 4.9° -3.9° -0.1° 6.7° 2.4km/h dir ONO 16.1km/h dir ONO -4.4° 0.2 23.6 1027.2 1028.1 1029.3 71% 88.6% 94% 566 23 495
05/02/19 -3.6° 0.9° 6.8° -5° -0.1° 8.9° 0.3km/h dir ONO 17.7km/h dir ONO -3.6° 0 23.6 1027.2 1028.1 1029.3 70% 88.1% 96% 450 28 870
06/02/19 -4.4° 1.3° 9.8° -6.1° -0.2° 11.1° 0.5km/h dir SE 9.7km/h dir E -5.3° 0 23.6 1022 1026.3 1028.9 62% 86.5% 96% 461 29 704
07/02/19 -0.4° 3.2° 7.8° -2.8° 2.4° 8.3° 2.7km/h dir SE 24.1km/h dir SO -1.7° 3.4 27 9.8mm/h 1018.2 1020.5 1023.3 86% 91.9% 96% 199 6 465
08/02/19 0.7° 5.2° 8.7° -1.1° 4.5° 9.4° 3.1km/h dir SSE 32.2km/h dir SSE 0.7° 0.2 27.2 1015.4 1019.7 1023.4 68% 86.7% 96% 404 19 520
09/02/19 9.9° 13.1° 6.1° 9.2° 13.3° 8.2km/h dir SSE 40.2km/h dir SSE 5.3° 2 29.2 1.6mm/h 1015.1 1017.4 1019.3 65% 73% 89% 439 16 982
10/02/19 5.7° 9.3° 11.3° 4.4° 8.5° 10.6° 14km/h dir SSE 61.2km/h dir SSE 3.3° 6.6 35.8 42.8mm/h 1004.3 1010.7 1016 69% 76.6% 92% 171 4 188
11/02/19 2.7° 5.2° 7.6° 1.1° 4.9° 8.9° 1.4km/h dir O 45.1km/h dir O 0.7° 3.2 39 13.4mm/h 1016 1024.3 1032.3 76% 87% 94% 403 13 745
12/02/19 3.1° -0.6° 2.7° 8.3° 3.7km/h dir N 24.1km/h dir N -1.1° 0.2 39.2 1032.1 1034.9 1037.2 80% 92% 96% 494 21 563
13/02/19 -1.1° 2.3° 8.3° -2.8° 1.9° 10° 1km/h dir SSE 12.9km/h dir SSE -1.2° 0 39.2 1034.5 1035.4 1036.8 69% 89.2% 95% 649 25 079
14/02/19 -2.8° 4.4° 16.8° -4.4° 17.8° 0km/h dir ESE 8km/h dir SO -2.8° 0 39.2 1031.9 1034.4 1036.4 41% 81% 96% 504 34 712
15/02/19 -2.1° 5.3° 16.6° -3.9° 3.8° 18.9° 0km/h dir SSE 6.4km/h dir NNE -2.1° 0.2 39.4 1028.4 1030.6 1032.4 45% 78.4% 95% 515 35 460
16/02/19 -1.2° 8.1° 18.8° -3.3° 5.9° 20° 1.8km/h dir SSE 29km/h dir S -1.2° 0.2 39.6 1026 1027.9 1029.8 37% 67.9% 94% 529 36 639
17/02/19 6.9° 12.1° 17.9° 1.7° 10.9° 18.9° 8.5km/h dir SE 38.6km/h dir SSE 6.9° 0 39.6 1021.7 1024.1 1026.2 36% 52.5% 70% 533 37 651
18/02/19 7.3° 10.4° 15.4° 6.1° 9.8° 16.7° 11.9km/h dir SSE 45.1km/h dir SSE 5.2° 0 39.6 1019.1 1021.2 1023.4 46% 69.3% 85% 545 37 106
19/02/19 1.7° 7.5° 14.4° -1.1° 16.1° 1.4km/h dir SSE 25.7km/h dir SSE 1.7° 0 39.6 1020.9 1022 1023.7 58% 78.3% 93% 496 34 716
20/02/19 -0.8° 6.2° 15.4° -2.8° 17.8° 0.3km/h dir S 12.9km/h dir S -0.8° 0 39.6 1022.6 1024.4 1026.3 54% 81.3% 96% 512 35 853
21/02/19 -0.6° 6.4° 16.2° -2.2° 5.1° 17.8° 0.3km/h dir O 11.3km/h dir OSO -0.6° 0 39.6 1026.4 1028.8 1031.4 55% 81.2% 96% 519 36 582
22/02/19 0.3° 8.2° 16.7° -2.2° 7.4° 18.3° 7.7km/h dir N 41.8km/h dir N 0.3° 0.2 39.8 1029.9 1031.2 1033 59% 80.9% 95% 534 37 786
23/02/19 -0.1° 6.9° 14.4° -1.7° 5.6° 16.1° 0.3km/h dir O 12.9km/h dir ONO -0.1° 0 39.8 1028.3 1029.6 1030.6 58% 82.2% 95% 538 37 819
24/02/19 -0.3° 6.8° 15.4° -2.2° 5.7° 18.9° 0.2km/h dir ONO 12.9km/h dir ONO -0.3° 0.2 40 1029.8 1032.4 1033.8 62% 83% 95% 529 37 654
25/02/19 -0.6° 6.2° 15.1° -2.2° 5.1° 17.8° 0km/h dir O 9.7km/h dir O -0.6° 0 40 1031.8 1033.1 1034.3 54% 80.6% 96% 554 38 425
26/02/19 -0.4° 6.9° 16.6° -2.8° 5.8° 19.4° 0km/h dir O 11.3km/h dir 0 -0.4° 0 40 1028.8 1031.1 1033.3 52% 79.5% 95% 603 39 778
27/02/19 -1° 7.1° 17.6° -2.8° 5.8° 20° 0km/h dir S 8km/h dir 0 -1° 0.2 40.2 1023.8 1026.3 1029.1 48% 79.9% 96% 566 41 849
28/02/19 1.7° 9.2° 17.7° -1.1° 8.2° 20.6° 1.4km/h dir O 33.8km/h dir 0 0.7° 0 40.2 1023 1024.7 1026.2 45% 75.7% 94% 563 41 248

RETOUR ACCUEIL


Date de création : 01/03/2019 : 21:35
Catégorie : ANNEE 2019 - MOIS PASSES - FEVRIER 2019
Page lue 151 fois